SondeTracker

Meteorological Radiosondes Database

Operations

Sounding was ended - last measurement: 2022-12-06 00:39:39z

MAP
About Radiosonde

Number: D22035597 (22035597)

Launch Site:

Type: DFM17

AUX: NO

Frequency: 403.611 MHz

Max Speed: 163 km/h at 28085 m

Average Speed: 69.63 km/h

Max Altitude: 28605 m

Average Ascent Speed: 4.77 m/s

Average Descent Speed: 25.02 m/s

Status: UNKNOWN

Status Changes
Launch Site Type AUX Frequency Status Finder Landing Point Description Changes made by
APRS Statistics

Received Frames: 35

First Frame [UTC]: 2022-12-06 00:13:25z

Last Frame [UTC]: 2022-12-06 00:39:39z

Receivers: VE1RUS

Flight Time: 00:26:14 h

Distance From First Measurement: 34.15 km

Nearest City: [0.00 km]

Nearest Hunter: [0.00 km]

Ground Altitude: 539 m

Distance from QTH: 0.00 km

APRS Data
Receiver Number Date/Time [UTC] φ λ Course [°] Speed [km/h] Altitude [m] Description
VE1RUSD220355972022-12-06 00:39:3947.4319-66.5983547018547Clb=-16.8m/s t=-57.6C h=-1.0% p=-1.0hPa 403.611 MHz Type=DFM17 ser=22035597 Radiosonde
VE1RUSD220355972022-12-06 00:38:4547.4286-66.6044556919054Clb=-20.7m/s t=-58.3C h=-1.0% p=-1.0hPa 403.611 MHz Type=DFM17 ser=22035597 Radiosonde
VE1RUSD220355972022-12-06 00:37:4747.4243-66.618896720032Clb=-17.7m/s t=-60.5C h=-1.0% p=-1.0hPa 403.611 MHz Type=DFM17 ser=22035597 Radiosonde
VE1RUSD220355972022-12-06 00:36:4247.4235-66.6224563720470Clb=-17.0m/s t=-60.6C h=-1.0% p=-1.0hPa 403.611 MHz Type=DFM17 ser=22035597 Radiosonde
VE1RUSD220355972022-12-06 00:35:5347.423-66.6233453120643Clb=-18.2m/s t=-61.6C h=-1.0% p=-1.0hPa 403.611 MHz Type=DFM17 ser=22035597 Radiosonde
VE1RUSD220355972022-12-06 00:35:2547.4207-66.6277465621134Clb=-13.6m/s t=-59.6C h=-1.0% p=-1.0hPa 403.611 MHz Type=DFM17 ser=22035597 Radiosonde
VE1RUSD220355972022-12-06 00:34:5047.4176-66.6311174821600Clb=-16.6m/s t=-59.9C h=-1.0% p=-1.0hPa 403.611 MHz Type=DFM17 ser=22035597 Radiosonde
VE1RUSD220355972022-12-06 00:34:2247.4118-66.6345417222260Clb=-17.7m/s t=-62.2C h=-1.0% p=-1.0hPa 403.611 MHz Type=DFM17 ser=22035597 Radiosonde
VE1RUSD220355972022-12-06 00:33:4847.4081-66.6399577622753Clb=-16.3m/s t=-59.4C h=-1.0% p=-1.0hPa 403.611 MHz Type=DFM17 ser=22035597 Radiosonde
VE1RUSD220355972022-12-06 00:33:1747.4044-66.6473537823269Clb=-18.9m/s t=-58.7C h=-1.0% p=-1.0hPa 403.611 MHz Type=DFM17 ser=22035597 Radiosonde
VE1RUSD220355972022-12-06 00:32:5747.3445-66.7737516928605Clb=1.8m/s t=-58.9C h=-1.0% p=-1.0hPa 403.611 MHz Type=DFM17 ser=22035597 Radiosonde
VE1RUSD220355972022-12-06 00:31:5547.3401-66.78384410428412Clb=3.0m/s t=-58.4C h=-1.0% p=-1.0hPa 403.611 MHz Type=DFM17 ser=22035597 Radiosonde
VE1RUSD220355972022-12-06 00:30:5747.3322-66.79783216328085Clb=9.1m/s t=-58.1C h=-1.0% p=-1.0hPa 403.611 MHz Type=DFM17 ser=22035597 Radiosonde
VE1RUSD220355972022-12-06 00:29:5847.3277-66.8034319427950Clb=3.5m/s t=-58.0C h=-1.0% p=-1.0hPa 403.611 MHz Type=DFM17 ser=22035597 Radiosonde
VE1RUSD220355972022-12-06 00:28:0447.3156-66.8194466327510Clb=9.0m/s t=-60.1C h=-1.0% p=-1.0hPa 403.611 MHz Type=DFM17 ser=22035597 Radiosonde
VE1RUSD220355972022-12-06 00:27:0347.3093-66.8259369827356Clb=4.0m/s t=-61.3C h=-1.0% p=-1.0hPa 403.611 MHz Type=DFM17 ser=22035597 Radiosonde
VE1RUSD220355972022-12-06 00:26:0447.3042-66.8331385727220Clb=0.5m/s t=-62.3C h=-1.0% p=-1.0hPa 403.611 MHz Type=DFM17 ser=22035597 Radiosonde
VE1RUSD220355972022-12-06 00:25:0547.2998-66.84073211327117Clb=5.2m/s t=-62.2C h=-1.0% p=-1.0hPa 403.611 MHz Type=DFM17 ser=22035597 Radiosonde
VE1RUSD220355972022-12-06 00:24:0447.2932-66.8512289326939Clb=7.8m/s t=-62.8C h=-1.0% p=-1.0hPa 403.611 MHz Type=DFM17 ser=22035597 Radiosonde
VE1RUSD220355972022-12-06 00:23:0647.2891-66.8575404326748Clb=7.4m/s t=-62.7C h=-1.0% p=-1.0hPa 403.611 MHz Type=DFM17 ser=22035597 Radiosonde
VE1RUSD220355972022-12-06 00:22:0647.2859-66.864449326497Clb=1.5m/s t=-62.5C h=-1.0% p=-1.0hPa 403.611 MHz Type=DFM17 ser=22035597 Radiosonde
VE1RUSD220355972022-12-06 00:20:1047.2807-66.879958025827Clb=4.0m/s t=-59.9C h=-1.0% p=-1.0hPa 403.611 MHz Type=DFM17 ser=22035597 Radiosonde
VE1RUSD220355972022-12-06 00:18:1747.2767-66.8942724425223Clb=-1.6m/s t=-57.8C h=-1.0% p=-1.0hPa 403.611 MHz Type=DFM17 ser=22035597 Radiosonde
VE1RUSD220355972022-12-06 00:17:1747.2749-66.8989366125100Clb=2.4m/s t=-57.1C h=-1.0% p=-1.0hPa 403.611 MHz Type=DFM17 ser=22035597 Radiosonde
VE1RUSD220355972022-12-06 00:16:1947.2715-66.9062458724926Clb=2.8m/s t=-56.7C h=-1.0% p=-1.0hPa 403.611 MHz Type=DFM17 ser=22035597 Radiosonde
VE1RUSD220355972022-12-06 00:15:4147.2708-66.9081724624880Clb=-0.3m/s t=-58.7C h=-1.0% p=-1.0hPa 403.611 MHz Type=DFM17 ser=22035597 Radiosonde
VE1RUSD220355972022-12-06 00:15:1247.2663-66.9185673124642Clb=3.9m/s t=-60.4C h=-1.0% p=-1.0hPa 403.611 MHz Type=DFM17 ser=22035597 Radiosonde
VE1RUSD220355972022-12-06 00:14:4447.2651-66.9208432824561Clb=4.6m/s t=-60.2C h=-1.0% p=-1.0hPa 403.611 MHz Type=DFM17 ser=22035597 Radiosonde
VE1RUSD220355972022-12-06 00:14:3247.2611-66.925973324291Clb=6.3m/s t=-59.0C h=-1.0% p=-1.0hPa 403.611 MHz Type=DFM17 ser=22035597 Radiosonde
VE1RUSD220355972022-12-06 00:14:0047.2572-66.928446524072Clb=1.7m/s t=-48.8C h=-1.0% p=-1.0hPa 403.611 MHz Type=DFM17 ser=22035597 Radiosonde
VE1RUSD220355972022-12-06 00:13:5147.2536-66.9303465023850Clb=2.5m/s t=-57.4C h=-1.0% p=-1.0hPa 403.611 MHz Type=DFM17 ser=22035597 Radiosonde
VE1RUSD220355972022-12-06 00:13:4447.2505-66.9337286123668Clb=4.6m/s t=-57.6C h=-1.0% p=-1.0hPa 403.611 MHz Type=DFM17 ser=22035597 Radiosonde
VE1RUSD220355972022-12-06 00:13:3947.2464-66.93894210023437Clb=2.9m/s t=-273.0C h=-1.0% p=-1.0hPa 403.611 MHz Type=DFM17 ser=22035597 Radiosonde
VE1RUSD220355972022-12-06 00:13:3647.2421-66.9446328523211Clb=-0.3m/s t=-57.9C h=-1.0% p=-1.0hPa 403.611 MHz Type=DFM17 ser=22035597 Radiosonde
VE1RUSD220355972022-12-06 00:13:2547.2389-66.9508237223017Clb=10.1m/s t=-58.1C h=-1.0% p=-1.0hPa 403.611 MHz Type=DFM17 ser=22035597 Radiosonde